sensor_id;sensor_type;location;lat;lon;timestamp;P1;durP1;ratioP1;P2;durP2;ratioP2
26042;SDS011;13818;52.156;5.382;2023-02-26T00:00:31;4.13;;;1.70;;
26042;SDS011;13818;52.156;5.382;2023-02-26T00:02:58;8.32;;;1.77;;
26042;SDS011;13818;52.156;5.382;2023-02-26T00:05:26;4.82;;;1.58;;
26042;SDS011;13818;52.156;5.382;2023-02-26T00:07:53;6.65;;;1.80;;
26042;SDS011;13818;52.156;5.382;2023-02-26T00:10:19;5.55;;;1.90;;
26042;SDS011;13818;52.156;5.382;2023-02-26T00:12:46;7.03;;;1.55;;
26042;SDS011;13818;52.156;5.382;2023-02-26T00:15:13;5.50;;;1.98;;
26042;SDS011;13818;52.156;5.382;2023-02-26T00:20:10;2.45;;;1.10;;
26042;SDS011;13818;52.156;5.382;2023-02-26T00:22:39;3.70;;;1.08;;
26042;SDS011;13818;52.156;5.382;2023-02-26T00:25:06;4.93;;;0.90;;
26042;SDS011;13818;52.156;5.382;2023-02-26T00:27:33;2.45;;;0.77;;
26042;SDS011;13818;52.156;5.382;2023-02-26T00:30:00;3.35;;;0.65;;
26042;SDS011;13818;52.156;5.382;2023-02-26T00:32:27;3.83;;;0.80;;
26042;SDS011;13818;52.156;5.382;2023-02-26T00:34:55;3.90;;;0.50;;
26042;SDS011;13818;52.156;5.382;2023-02-26T00:37:33;3.67;;;0.70;;
26042;SDS011;13818;52.156;5.382;2023-02-26T00:40:14;2.95;;;0.90;;
26042;SDS011;13818;52.156;5.382;2023-02-26T00:42:46;4.80;;;0.90;;
26042;SDS011;13818;52.156;5.382;2023-02-26T00:45:13;3.50;;;0.70;;
26042;SDS011;13818;52.156;5.382;2023-02-26T00:47:41;2.83;;;0.63;;
26042;SDS011;13818;52.156;5.382;2023-02-26T00:50:15;4.03;;;0.80;;
26042;SDS011;13818;52.156;5.382;2023-02-26T00:52:59;3.55;;;1.00;;
26042;SDS011;13818;52.156;5.382;2023-02-26T00:55:29;2.40;;;0.60;;
26042;SDS011;13818;52.156;5.382;2023-02-26T00:57:56;2.50;;;1.08;;
26042;SDS011;13818;52.156;5.382;2023-02-26T01:00:22;8.25;;;0.98;;
26042;SDS011;13818;52.156;5.382;2023-02-26T01:02:49;1.33;;;0.50;;
26042;SDS011;13818;52.156;5.382;2023-02-26T01:05:17;2.08;;;0.70;;
26042;SDS011;13818;52.156;5.382;2023-02-26T01:07:46;3.60;;;0.98;;
26042;SDS011;13818;52.156;5.382;2023-02-26T01:10:23;3.88;;;0.80;;
26042;SDS011;13818;52.156;5.382;2023-02-26T01:12:50;3.30;;;0.75;;
26042;SDS011;13818;52.156;5.382;2023-02-26T01:15:17;2.22;;;0.68;;
26042;SDS011;13818;52.156;5.382;2023-02-26T01:17:46;1.00;;;0.77;;
26042;SDS011;13818;52.156;5.382;2023-02-26T01:20:17;2.42;;;0.77;;
26042;SDS011;13818;52.156;5.382;2023-02-26T01:22:45;4.68;;;1.50;;
26042;SDS011;13818;52.156;5.382;2023-02-26T01:25:18;2.80;;;0.60;;
26042;SDS011;13818;52.156;5.382;2023-02-26T01:27:50;3.92;;;0.80;;
26042;SDS011;13818;52.156;5.382;2023-02-26T01:30:17;5.03;;;0.70;;
26042;SDS011;13818;52.156;5.382;2023-02-26T01:32:45;7.93;;;0.88;;
26042;SDS011;13818;52.156;5.382;2023-02-26T01:35:18;4.75;;;0.75;;
26042;SDS011;13818;52.156;5.382;2023-02-26T01:37:54;0.68;;;0.60;;
26042;SDS011;13818;52.156;5.382;2023-02-26T01:43:30;7.63;;;1.27;;
26042;SDS011;13818;52.156;5.382;2023-02-26T01:46:02;3.08;;;0.82;;
26042;SDS011;13818;52.156;5.382;2023-02-26T01:48:38;7.97;;;1.10;;
26042;SDS011;13818;52.156;5.382;2023-02-26T01:51:14;6.38;;;0.73;;
26042;SDS011;13818;52.156;5.382;2023-02-26T01:53:40;4.03;;;0.88;;
26042;SDS011;13818;52.156;5.382;2023-02-26T01:56:09;2.53;;;0.60;;
26042;SDS011;13818;52.156;5.382;2023-02-26T01:58:39;1.10;;;0.32;;
26042;SDS011;13818;52.156;5.382;2023-02-26T02:01:06;2.17;;;0.63;;
26042;SDS011;13818;52.156;5.382;2023-02-26T02:03:34;7.10;;;1.05;;
26042;SDS011;13818;52.156;5.382;2023-02-26T02:06:04;5.20;;;0.80;;
26042;SDS011;13818;52.156;5.382;2023-02-26T02:08:33;5.28;;;0.60;;
26042;SDS011;13818;52.156;5.382;2023-02-26T02:11:01;3.13;;;0.80;;
26042;SDS011;13818;52.156;5.382;2023-02-26T02:16:25;2.08;;;0.65;;
26042;SDS011;13818;52.156;5.382;2023-02-26T02:19:00;3.67;;;0.75;;
26042;SDS011;13818;52.156;5.382;2023-02-26T02:24:42;2.40;;;0.70;;
26042;SDS011;13818;52.156;5.382;2023-02-26T02:27:16;2.13;;;0.50;;
26042;SDS011;13818;52.156;5.382;2023-02-26T02:29:54;3.30;;;0.47;;
26042;SDS011;13818;52.156;5.382;2023-02-26T02:32:34;0.30;;;0.30;;
26042;SDS011;13818;52.156;5.382;2023-02-26T02:35:06;7.32;;;0.82;;
26042;SDS011;13818;52.156;5.382;2023-02-26T02:37:39;4.70;;;0.40;;
26042;SDS011;13818;52.156;5.382;2023-02-26T02:40:10;3.20;;;0.47;;
26042;SDS011;13818;52.156;5.382;2023-02-26T02:42:41;0.57;;;0.32;;
26042;SDS011;13818;52.156;5.382;2023-02-26T02:45:12;2.28;;;0.40;;
26042;SDS011;13818;52.156;5.382;2023-02-26T02:47:46;3.10;;;0.70;;
26042;SDS011;13818;52.156;5.382;2023-02-26T02:50:17;6.80;;;0.60;;
26042;SDS011;13818;52.156;5.382;2023-02-26T02:52:47;2.97;;;0.63;;
26042;SDS011;13818;52.156;5.382;2023-02-26T02:55:19;1.83;;;0.52;;
26042;SDS011;13818;52.156;5.382;2023-02-26T02:57:49;4.78;;;0.50;;
26042;SDS011;13818;52.156;5.382;2023-02-26T03:00:19;6.40;;;0.50;;
26042;SDS011;13818;52.156;5.382;2023-02-26T03:02:50;1.60;;;0.50;;
26042;SDS011;13818;52.156;5.382;2023-02-26T03:05:22;8.07;;;1.30;;
26042;SDS011;13818;52.156;5.382;2023-02-26T03:07:50;3.85;;;0.77;;
26042;SDS011;13818;52.156;5.382;2023-02-26T03:10:19;3.05;;;0.88;;
26042;SDS011;13818;52.156;5.382;2023-02-26T03:12:45;6.00;;;0.90;;
26042;SDS011;13818;52.156;5.382;2023-02-26T03:15:12;2.65;;;0.88;;
26042;SDS011;13818;52.156;5.382;2023-02-26T03:17:42;4.45;;;0.75;;
26042;SDS011;13818;52.156;5.382;2023-02-26T03:20:20;2.55;;;0.70;;
26042;SDS011;13818;52.156;5.382;2023-02-26T03:22:54;2.70;;;0.50;;
26042;SDS011;13818;52.156;5.382;2023-02-26T03:25:32;6.05;;;0.77;;
26042;SDS011;13818;52.156;5.382;2023-02-26T03:28:06;5.85;;;0.90;;
26042;SDS011;13818;52.156;5.382;2023-02-26T03:30:37;3.55;;;0.82;;
26042;SDS011;13818;52.156;5.382;2023-02-26T03:33:09;2.95;;;0.60;;
26042;SDS011;13818;52.156;5.382;2023-02-26T03:35:46;1.40;;;0.80;;
26042;SDS011;13818;52.156;5.382;2023-02-26T03:38:18;7.53;;;0.90;;
26042;SDS011;13818;52.156;5.382;2023-02-26T03:40:54;2.03;;;0.57;;
26042;SDS011;13818;52.156;5.382;2023-02-26T03:43:33;4.07;;;0.63;;
26042;SDS011;13818;52.156;5.382;2023-02-26T03:46:06;3.33;;;0.63;;
26042;SDS011;13818;52.156;5.382;2023-02-26T03:48:37;2.72;;;0.57;;
26042;SDS011;13818;52.156;5.382;2023-02-26T03:51:06;1.45;;;0.40;;
26042;SDS011;13818;52.156;5.382;2023-02-26T03:53:37;2.58;;;0.52;;
26042;SDS011;13818;52.156;5.382;2023-02-26T03:56:06;2.05;;;0.45;;
26042;SDS011;13818;52.156;5.382;2023-02-26T03:58:39;2.83;;;0.40;;
26042;SDS011;13818;52.156;5.382;2023-02-26T04:01:06;3.22;;;0.70;;
26042;SDS011;13818;52.156;5.382;2023-02-26T04:03:38;3.22;;;0.40;;
26042;SDS011;13818;52.156;5.382;2023-02-26T04:06:10;3.30;;;0.43;;
26042;SDS011;13818;52.156;5.382;2023-02-26T04:08:37;4.78;;;0.73;;
26042;SDS011;13818;52.156;5.382;2023-02-26T04:11:06;3.22;;;0.75;;
26042;SDS011;13818;52.156;5.382;2023-02-26T04:13:35;2.95;;;0.70;;
26042;SDS011;13818;52.156;5.382;2023-02-26T04:16:03;2.92;;;0.60;;
26042;SDS011;13818;52.156;5.382;2023-02-26T04:18:30;13.07;;;1.05;;
26042;SDS011;13818;52.156;5.382;2023-02-26T04:20:56;3.97;;;0.60;;
26042;SDS011;13818;52.156;5.382;2023-02-26T04:23:24;1.85;;;0.50;;
26042;SDS011;13818;52.156;5.382;2023-02-26T04:25:51;6.38;;;0.60;;
26042;SDS011;13818;52.156;5.382;2023-02-26T04:28:17;1.42;;;0.68;;
26042;SDS011;13818;52.156;5.382;2023-02-26T04:30:44;1.67;;;0.50;;
26042;SDS011;13818;52.156;5.382;2023-02-26T04:33:11;3.85;;;0.45;;
26042;SDS011;13818;52.156;5.382;2023-02-26T04:35:38;13.48;;;1.05;;
26042;SDS011;13818;52.156;5.382;2023-02-26T04:38:05;0.63;;;0.40;;
26042;SDS011;13818;52.156;5.382;2023-02-26T04:40:33;6.45;;;1.08;;
26042;SDS011;13818;52.156;5.382;2023-02-26T04:42:59;1.45;;;0.70;;
26042;SDS011;13818;52.156;5.382;2023-02-26T04:45:27;4.18;;;0.60;;
26042;SDS011;13818;52.156;5.382;2023-02-26T04:47:53;1.42;;;0.70;;
26042;SDS011;13818;52.156;5.382;2023-02-26T04:50:19;2.22;;;0.60;;
26042;SDS011;13818;52.156;5.382;2023-02-26T04:52:46;5.72;;;0.65;;
26042;SDS011;13818;52.156;5.382;2023-02-26T04:55:13;4.32;;;0.80;;
26042;SDS011;13818;52.156;5.382;2023-02-26T04:57:41;0.88;;;0.55;;
26042;SDS011;13818;52.156;5.382;2023-02-26T05:00:10;3.70;;;0.63;;
26042;SDS011;13818;52.156;5.382;2023-02-26T05:02:37;2.17;;;0.77;;
26042;SDS011;13818;52.156;5.382;2023-02-26T05:05:04;2.78;;;0.60;;
26042;SDS011;13818;52.156;5.382;2023-02-26T05:07:31;5.15;;;0.65;;
26042;SDS011;13818;52.156;5.382;2023-02-26T05:09:58;2.78;;;0.60;;
26042;SDS011;13818;52.156;5.382;2023-02-26T05:12:24;3.80;;;0.65;;
26042;SDS011;13818;52.156;5.382;2023-02-26T05:14:52;4.88;;;0.88;;
26042;SDS011;13818;52.156;5.382;2023-02-26T05:17:18;6.25;;;0.77;;
26042;SDS011;13818;52.156;5.382;2023-02-26T05:19:46;1.67;;;0.60;;
26042;SDS011;13818;52.156;5.382;2023-02-26T05:22:13;3.72;;;0.68;;
26042;SDS011;13818;52.156;5.382;2023-02-26T05:24:39;2.75;;;0.65;;
26042;SDS011;13818;52.156;5.382;2023-02-26T05:27:06;2.35;;;1.10;;
26042;SDS011;13818;52.156;5.382;2023-02-26T05:29:33;4.63;;;0.80;;
26042;SDS011;13818;52.156;5.382;2023-02-26T05:32:01;4.80;;;0.90;;
26042;SDS011;13818;52.156;5.382;2023-02-26T05:34:28;7.53;;;0.90;;
26042;SDS011;13818;52.156;5.382;2023-02-26T05:36:54;4.78;;;0.90;;
26042;SDS011;13818;52.156;5.382;2023-02-26T05:39:21;2.63;;;0.90;;
26042;SDS011;13818;52.156;5.382;2023-02-26T05:41:47;2.97;;;0.80;;
26042;SDS011;13818;52.156;5.382;2023-02-26T05:44:16;2.85;;;0.70;;
26042;SDS011;13818;52.156;5.382;2023-02-26T05:46:42;2.55;;;0.82;;
26042;SDS011;13818;52.156;5.382;2023-02-26T05:49:10;2.30;;;0.90;;
26042;SDS011;13818;52.156;5.382;2023-02-26T05:51:37;2.97;;;1.15;;
26042;SDS011;13818;52.156;5.382;2023-02-26T05:54:03;4.00;;;0.85;;
26042;SDS011;13818;52.156;5.382;2023-02-26T05:56:30;3.47;;;0.85;;
26042;SDS011;13818;52.156;5.382;2023-02-26T05:58:57;1.88;;;1.20;;
26042;SDS011;13818;52.156;5.382;2023-02-26T06:01:23;1.08;;;0.75;;
26042;SDS011;13818;52.156;5.382;2023-02-26T06:03:50;2.00;;;0.80;;
26042;SDS011;13818;52.156;5.382;2023-02-26T06:06:17;2.50;;;0.60;;
26042;SDS011;13818;52.156;5.382;2023-02-26T06:11:12;3.72;;;0.68;;
26042;SDS011;13818;52.156;5.382;2023-02-26T06:13:39;3.38;;;0.70;;
26042;SDS011;13818;52.156;5.382;2023-02-26T06:16:05;1.13;;;0.90;;
26042;SDS011;13818;52.156;5.382;2023-02-26T06:18:32;1.65;;;1.05;;
26042;SDS011;13818;52.156;5.382;2023-02-26T06:20:59;2.75;;;0.70;;
26042;SDS011;13818;52.156;5.382;2023-02-26T06:23:27;1.05;;;0.70;;
26042;SDS011;13818;52.156;5.382;2023-02-26T06:25:53;2.35;;;0.80;;
26042;SDS011;13818;52.156;5.382;2023-02-26T06:28:19;1.58;;;0.65;;
26042;SDS011;13818;52.156;5.382;2023-02-26T06:30:48;2.25;;;0.57;;
26042;SDS011;13818;52.156;5.382;2023-02-26T06:33:16;2.30;;;0.60;;
26042;SDS011;13818;52.156;5.382;2023-02-26T06:35:44;4.43;;;0.93;;
26042;SDS011;13818;52.156;5.382;2023-02-26T06:38:12;3.00;;;0.55;;
26042;SDS011;13818;52.156;5.382;2023-02-26T06:40:40;4.57;;;0.88;;
26042;SDS011;13818;52.156;5.382;2023-02-26T06:43:07;5.03;;;0.93;;
26042;SDS011;13818;52.156;5.382;2023-02-26T06:45:33;1.30;;;0.45;;
26042;SDS011;13818;52.156;5.382;2023-02-26T06:48:00;3.58;;;0.82;;
26042;SDS011;13818;52.156;5.382;2023-02-26T06:50:27;5.43;;;0.95;;
26042;SDS011;13818;52.156;5.382;2023-02-26T06:52:53;6.28;;;1.50;;
26042;SDS011;13818;52.156;5.382;2023-02-26T06:55:20;4.60;;;0.80;;
26042;SDS011;13818;52.156;5.382;2023-02-26T06:57:52;4.25;;;1.10;;
26042;SDS011;13818;52.156;5.382;2023-02-26T07:00:20;3.58;;;0.80;;
26042;SDS011;13818;52.156;5.382;2023-02-26T07:02:48;4.88;;;0.60;;
26042;SDS011;13818;52.156;5.382;2023-02-26T07:05:15;3.92;;;0.40;;
26042;SDS011;13818;52.156;5.382;2023-02-26T07:07:42;4.68;;;0.75;;
26042;SDS011;13818;52.156;5.382;2023-02-26T07:10:09;3.17;;;0.80;;
26042;SDS011;13818;52.156;5.382;2023-02-26T07:12:37;2.55;;;0.50;;
26042;SDS011;13818;52.156;5.382;2023-02-26T07:15:06;2.95;;;0.57;;
26042;SDS011;13818;52.156;5.382;2023-02-26T07:17:33;0.68;;;0.40;;
26042;SDS011;13818;52.156;5.382;2023-02-26T07:19:59;4.50;;;0.65;;
26042;SDS011;13818;52.156;5.382;2023-02-26T07:22:30;4.13;;;0.77;;
26042;SDS011;13818;52.156;5.382;2023-02-26T07:24:57;3.33;;;0.80;;
26042;SDS011;13818;52.156;5.382;2023-02-26T07:27:24;3.40;;;0.57;;
26042;SDS011;13818;52.156;5.382;2023-02-26T07:29:50;4.38;;;1.02;;
26042;SDS011;13818;52.156;5.382;2023-02-26T07:32:19;2.13;;;0.68;;
26042;SDS011;13818;52.156;5.382;2023-02-26T07:34:45;4.95;;;0.80;;
26042;SDS011;13818;52.156;5.382;2023-02-26T07:37:12;3.28;;;0.68;;
26042;SDS011;13818;52.156;5.382;2023-02-26T07:39:39;4.95;;;0.70;;
26042;SDS011;13818;52.156;5.382;2023-02-26T07:42:05;3.63;;;0.60;;
26042;SDS011;13818;52.156;5.382;2023-02-26T07:44:33;2.95;;;0.65;;
26042;SDS011;13818;52.156;5.382;2023-02-26T07:47:00;2.20;;;0.60;;
26042;SDS011;13818;52.156;5.382;2023-02-26T07:49:28;2.33;;;0.50;;
26042;SDS011;13818;52.156;5.382;2023-02-26T07:54:23;2.08;;;0.50;;
26042;SDS011;13818;52.156;5.382;2023-02-26T07:56:49;2.30;;;0.60;;
26042;SDS011;13818;52.156;5.382;2023-02-26T07:59:16;3.28;;;0.73;;
26042;SDS011;13818;52.156;5.382;2023-02-26T08:01:42;1.17;;;0.50;;
26042;SDS011;13818;52.156;5.382;2023-02-26T08:04:09;3.92;;;0.88;;
26042;SDS011;13818;52.156;5.382;2023-02-26T08:06:37;1.83;;;0.57;;
26042;SDS011;13818;52.156;5.382;2023-02-26T08:09:04;4.65;;;0.73;;
26042;SDS011;13818;52.156;5.382;2023-02-26T08:11:30;2.15;;;0.68;;
26042;SDS011;13818;52.156;5.382;2023-02-26T08:14:00;4.40;;;0.80;;
26042;SDS011;13818;52.156;5.382;2023-02-26T08:16:27;7.07;;;0.70;;
26042;SDS011;13818;52.156;5.382;2023-02-26T08:18:53;2.25;;;0.60;;
26042;SDS011;13818;52.156;5.382;2023-02-26T08:21:20;6.35;;;0.70;;
26042;SDS011;13818;52.156;5.382;2023-02-26T08:23:48;2.53;;;0.60;;
26042;SDS011;13818;52.156;5.382;2023-02-26T08:26:16;3.90;;;0.73;;
26042;SDS011;13818;52.156;5.382;2023-02-26T08:28:42;3.13;;;0.60;;
26042;SDS011;13818;52.156;5.382;2023-02-26T08:31:10;2.03;;;0.50;;
26042;SDS011;13818;52.156;5.382;2023-02-26T08:33:37;1.80;;;0.60;;
26042;SDS011;13818;52.156;5.382;2023-02-26T08:36:04;4.82;;;0.82;;
26042;SDS011;13818;52.156;5.382;2023-02-26T08:38:31;3.60;;;0.50;;
26042;SDS011;13818;52.156;5.382;2023-02-26T08:40:59;6.13;;;0.70;;
26042;SDS011;13818;52.156;5.382;2023-02-26T08:43:26;2.03;;;0.52;;
26042;SDS011;13818;52.156;5.382;2023-02-26T08:45:53;1.70;;;0.40;;
26042;SDS011;13818;52.156;5.382;2023-02-26T08:48:21;1.70;;;0.50;;
26042;SDS011;13818;52.156;5.382;2023-02-26T08:50:48;4.45;;;0.32;;
26042;SDS011;13818;52.156;5.382;2023-02-26T08:53:15;1.50;;;0.43;;
26042;SDS011;13818;52.156;5.382;2023-02-26T08:55:42;7.25;;;0.60;;
26042;SDS011;13818;52.156;5.382;2023-02-26T08:58:14;0.65;;;0.40;;
26042;SDS011;13818;52.156;5.382;2023-02-26T09:00:41;3.70;;;0.55;;
26042;SDS011;13818;52.156;5.382;2023-02-26T09:03:08;2.22;;;0.45;;
26042;SDS011;13818;52.156;5.382;2023-02-26T09:05:34;1.38;;;0.50;;
26042;SDS011;13818;52.156;5.382;2023-02-26T09:08:01;0.82;;;0.63;;
26042;SDS011;13818;52.156;5.382;2023-02-26T09:10:28;1.05;;;0.30;;
26042;SDS011;13818;52.156;5.382;2023-02-26T09:15:26;4.22;;;0.55;;
26042;SDS011;13818;52.156;5.382;2023-02-26T09:17:53;4.68;;;0.45;;
26042;SDS011;13818;52.156;5.382;2023-02-26T09:20:19;0.80;;;0.80;;
26042;SDS011;13818;52.156;5.382;2023-02-26T09:22:46;0.15;;;0.15;;
26042;SDS011;13818;52.156;5.382;2023-02-26T09:25:12;2.08;;;0.55;;
26042;SDS011;13818;52.156;5.382;2023-02-26T09:27:39;1.25;;;0.40;;
26042;SDS011;13818;52.156;5.382;2023-02-26T09:30:06;0.88;;;0.40;;
26042;SDS011;13818;52.156;5.382;2023-02-26T09:32:34;2.40;;;0.60;;
26042;SDS011;13818;52.156;5.382;2023-02-26T09:35:01;0.77;;;0.40;;
26042;SDS011;13818;52.156;5.382;2023-02-26T09:37:29;3.55;;;0.63;;
26042;SDS011;13818;52.156;5.382;2023-02-26T09:39:56;4.18;;;0.47;;
26042;SDS011;13818;52.156;5.382;2023-02-26T09:42:26;0.57;;;0.28;;
26042;SDS011;13818;52.156;5.382;2023-02-26T09:45:02;2.97;;;0.50;;
26042;SDS011;13818;52.156;5.382;2023-02-26T09:47:32;1.35;;;0.52;;
26042;SDS011;13818;52.156;5.382;2023-02-26T09:50:09;1.20;;;0.43;;
26042;SDS011;13818;52.156;5.382;2023-02-26T09:52:39;2.35;;;0.40;;
26042;SDS011;13818;52.156;5.382;2023-02-26T09:55:11;2.70;;;0.98;;
26042;SDS011;13818;52.156;5.382;2023-02-26T09:57:41;1.55;;;0.40;;
26042;SDS011;13818;52.156;5.382;2023-02-26T10:00:16;1.27;;;0.35;;
26042;SDS011;13818;52.156;5.382;2023-02-26T10:02:57;2.00;;;0.60;;
26042;SDS011;13818;52.156;5.382;2023-02-26T10:05:42;0.80;;;0.30;;
26042;SDS011;13818;52.156;5.382;2023-02-26T10:08:14;2.85;;;0.40;;
26042;SDS011;13818;52.156;5.382;2023-02-26T10:10:45;1.48;;;0.40;;
26042;SDS011;13818;52.156;5.382;2023-02-26T10:16:04;1.42;;;0.30;;
26042;SDS011;13818;52.156;5.382;2023-02-26T10:18:37;1.80;;;0.40;;
26042;SDS011;13818;52.156;5.382;2023-02-26T10:21:10;3.08;;;0.30;;
26042;SDS011;13818;52.156;5.382;2023-02-26T10:23:41;1.48;;;0.28;;
26042;SDS011;13818;52.156;5.382;2023-02-26T10:26:13;2.85;;;0.60;;
26042;SDS011;13818;52.156;5.382;2023-02-26T10:28:47;2.20;;;0.30;;
26042;SDS011;13818;52.156;5.382;2023-02-26T10:31:21;1.42;;;0.40;;
26042;SDS011;13818;52.156;5.382;2023-02-26T10:33:59;0.60;;;0.20;;
26042;SDS011;13818;52.156;5.382;2023-02-26T10:36:38;1.33;;;0.40;;
26042;SDS011;13818;52.156;5.382;2023-02-26T10:39:18;0.40;;;0.20;;
26042;SDS011;13818;52.156;5.382;2023-02-26T10:41:53;0.93;;;0.40;;
26042;SDS011;13818;52.156;5.382;2023-02-26T10:44:26;1.30;;;0.35;;
26042;SDS011;13818;52.156;5.382;2023-02-26T10:47:03;3.25;;;0.35;;
26042;SDS011;13818;52.156;5.382;2023-02-26T10:49:51;1.70;;;0.40;;
26042;SDS011;13818;52.156;5.382;2023-02-26T10:52:20;2.42;;;0.47;;
26042;SDS011;13818;52.156;5.382;2023-02-26T10:54:55;3.83;;;0.55;;
26042;SDS011;13818;52.156;5.382;2023-02-26T10:57:31;2.80;;;0.68;;
26042;SDS011;13818;52.156;5.382;2023-02-26T11:00:00;0.43;;;0.32;;
26042;SDS011;13818;52.156;5.382;2023-02-26T11:02:33;0.35;;;0.30;;
26042;SDS011;13818;52.156;5.382;2023-02-26T11:05:04;1.60;;;0.38;;
26042;SDS011;13818;52.156;5.382;2023-02-26T11:07:32;2.50;;;0.38;;
26042;SDS011;13818;52.156;5.382;2023-02-26T11:10:03;1.98;;;0.50;;
26042;SDS011;13818;52.156;5.382;2023-02-26T11:12:30;0.10;;;0.10;;
26042;SDS011;13818;52.156;5.382;2023-02-26T11:14:59;5.25;;;0.75;;
26042;SDS011;13818;52.156;5.382;2023-02-26T11:19:58;1.40;;;0.65;;
26042;SDS011;13818;52.156;5.382;2023-02-26T11:22:31;2.25;;;0.38;;
26042;SDS011;13818;52.156;5.382;2023-02-26T11:25:00;0.75;;;0.35;;
26042;SDS011;13818;52.156;5.382;2023-02-26T11:27:30;0.17;;;0.13;;
26042;SDS011;13818;52.156;5.382;2023-02-26T11:30:02;1.95;;;0.47;;
26042;SDS011;13818;52.156;5.382;2023-02-26T11:32:31;3.47;;;0.70;;
26042;SDS011;13818;52.156;5.382;2023-02-26T11:34:58;1.00;;;0.30;;
26042;SDS011;13818;52.156;5.382;2023-02-26T11:37:27;1.55;;;0.60;;
26042;SDS011;13818;52.156;5.382;2023-02-26T11:39:57;0.38;;;0.38;;
26042;SDS011;13818;52.156;5.382;2023-02-26T11:42:25;0.65;;;0.30;;
26042;SDS011;13818;52.156;5.382;2023-02-26T11:44:52;0.20;;;0.20;;
26042;SDS011;13818;52.156;5.382;2023-02-26T11:47:20;1.30;;;0.20;;
26042;SDS011;13818;52.156;5.382;2023-02-26T11:49:50;2.95;;;0.55;;
26042;SDS011;13818;52.156;5.382;2023-02-26T11:52:21;3.60;;;0.70;;
26042;SDS011;13818;52.156;5.382;2023-02-26T11:54:54;3.22;;;0.30;;
26042;SDS011;13818;52.156;5.382;2023-02-26T11:57:26;0.50;;;0.30;;
26042;SDS011;13818;52.156;5.382;2023-02-26T11:59:56;1.10;;;0.40;;
26042;SDS011;13818;52.156;5.382;2023-02-26T12:02:25;0.98;;;0.35;;
26042;SDS011;13818;52.156;5.382;2023-02-26T12:04:57;0.20;;;0.20;;
26042;SDS011;13818;52.156;5.382;2023-02-26T12:07:26;3.47;;;0.38;;
26042;SDS011;13818;52.156;5.382;2023-02-26T12:09:53;1.95;;;0.40;;
26042;SDS011;13818;52.156;5.382;2023-02-26T12:15:20;1.83;;;0.30;;
26042;SDS011;13818;52.156;5.382;2023-02-26T12:20:54;1.88;;;0.50;;
26042;SDS011;13818;52.156;5.382;2023-02-26T12:23:37;0.77;;;0.20;;
26042;SDS011;13818;52.156;5.382;2023-02-26T12:26:23;2.33;;;0.35;;
26042;SDS011;13818;52.156;5.382;2023-02-26T12:29:01;0.95;;;0.40;;
26042;SDS011;13818;52.156;5.382;2023-02-26T12:31:44;0.40;;;0.30;;
26042;SDS011;13818;52.156;5.382;2023-02-26T12:34:28;2.45;;;0.52;;
26042;SDS011;13818;52.156;5.382;2023-02-26T12:37:16;2.70;;;0.30;;
26042;SDS011;13818;52.156;5.382;2023-02-26T12:39:56;1.65;;;0.22;;
26042;SDS011;13818;52.156;5.382;2023-02-26T12:42:34;2.13;;;0.20;;
26042;SDS011;13818;52.156;5.382;2023-02-26T12:51:09;2.45;;;0.40;;
26042;SDS011;13818;52.156;5.382;2023-02-26T12:57:04;1.27;;;0.30;;
26042;SDS011;13818;52.156;5.382;2023-02-26T12:59:57;1.42;;;0.43;;
26042;SDS011;13818;52.156;5.382;2023-02-26T13:05:41;1.45;;;0.50;;
26042;SDS011;13818;52.156;5.382;2023-02-26T13:08:20;0.95;;;0.35;;
26042;SDS011;13818;52.156;5.382;2023-02-26T13:11:00;3.53;;;0.60;;
26042;SDS011;13818;52.156;5.382;2023-02-26T13:13:45;0.20;;;0.20;;
26042;SDS011;13818;52.156;5.382;2023-02-26T13:16:32;0.43;;;0.22;;
26042;SDS011;13818;52.156;5.382;2023-02-26T13:19:07;1.10;;;0.40;;
26042;SDS011;13818;52.156;5.382;2023-02-26T13:21:47;0.22;;;0.22;;
26042;SDS011;13818;52.156;5.382;2023-02-26T13:24:20;0.20;;;0.20;;
26042;SDS011;13818;52.156;5.382;2023-02-26T13:26:50;1.55;;;0.55;;
26042;SDS011;13818;52.156;5.382;2023-02-26T13:29:19;1.58;;;0.20;;
26042;SDS011;13818;52.156;5.382;2023-02-26T13:31:52;1.48;;;0.30;;
26042;SDS011;13818;52.156;5.382;2023-02-26T13:34:24;1.35;;;0.40;;
26042;SDS011;13818;52.156;5.382;2023-02-26T13:36:59;5.18;;;0.50;;
26042;SDS011;13818;52.156;5.382;2023-02-26T13:39:38;1.03;;;0.40;;
26042;SDS011;13818;52.156;5.382;2023-02-26T13:42:19;3.05;;;0.40;;
26042;SDS011;13818;52.156;5.382;2023-02-26T13:44:55;0.50;;;0.30;;
26042;SDS011;13818;52.156;5.382;2023-02-26T13:47:39;3.67;;;0.30;;
26042;SDS011;13818;52.156;5.382;2023-02-26T13:50:28;1.92;;;0.50;;
26042;SDS011;13818;52.156;5.382;2023-02-26T13:53:04;1.42;;;0.25;;
26042;SDS011;13818;52.156;5.382;2023-02-26T13:56:05;2.70;;;0.33;;
26042;SDS011;13818;52.156;5.382;2023-02-26T13:58:34;1.05;;;0.30;;
26042;SDS011;13818;52.156;5.382;2023-02-26T14:01:04;0.90;;;0.30;;
26042;SDS011;13818;52.156;5.382;2023-02-26T14:03:34;1.67;;;0.20;;
26042;SDS011;13818;52.156;5.382;2023-02-26T14:08:52;0.93;;;0.30;;
26042;SDS011;13818;52.156;5.382;2023-02-26T14:14:17;2.78;;;0.22;;
26042;SDS011;13818;52.156;5.382;2023-02-26T14:16:50;2.25;;;0.40;;
26042;SDS011;13818;52.156;5.382;2023-02-26T14:19:21;0.35;;;0.20;;
26042;SDS011;13818;52.156;5.382;2023-02-26T14:21:52;0.60;;;0.47;;
26042;SDS011;13818;52.156;5.382;2023-02-26T14:24:23;1.70;;;0.40;;
26042;SDS011;13818;52.156;5.382;2023-02-26T14:27:08;1.33;;;0.43;;
26042;SDS011;13818;52.156;5.382;2023-02-26T14:30:00;0.57;;;0.20;;
26042;SDS011;13818;52.156;5.382;2023-02-26T14:32:31;0.28;;;0.20;;
26042;SDS011;13818;52.156;5.382;2023-02-26T14:35:02;0.55;;;0.38;;
26042;SDS011;13818;52.156;5.382;2023-02-26T14:37:31;0.65;;;0.20;;
26042;SDS011;13818;52.156;5.382;2023-02-26T14:40:05;0.43;;;0.20;;
26042;SDS011;13818;52.156;5.382;2023-02-26T14:42:40;3.40;;;0.35;;
26042;SDS011;13818;52.156;5.382;2023-02-26T14:45:12;0.60;;;0.38;;
26042;SDS011;13818;52.156;5.382;2023-02-26T14:47:47;0.30;;;0.30;;
26042;SDS011;13818;52.156;5.382;2023-02-26T14:50:16;2.85;;;0.32;;
26042;SDS011;13818;52.156;5.382;2023-02-26T14:53:04;1.15;;;0.25;;
26042;SDS011;13818;52.156;5.382;2023-02-26T14:55:53;1.55;;;0.30;;
26042;SDS011;13818;52.156;5.382;2023-02-26T14:58:31;0.68;;;0.30;;
26042;SDS011;13818;52.156;5.382;2023-02-26T15:01:26;0.88;;;0.35;;
26042;SDS011;13818;52.156;5.382;2023-02-26T15:04:11;1.38;;;0.28;;
26042;SDS011;13818;52.156;5.382;2023-02-26T15:06:49;1.58;;;0.20;;
26042;SDS011;13818;52.156;5.382;2023-02-26T15:09:25;1.17;;;0.30;;
26042;SDS011;13818;52.156;5.382;2023-02-26T15:12:08;1.23;;;0.50;;
26042;SDS011;13818;52.156;5.382;2023-02-26T15:14:53;1.92;;;0.52;;
26042;SDS011;13818;52.156;5.382;2023-02-26T15:17:30;2.70;;;0.47;;
26042;SDS011;13818;52.156;5.382;2023-02-26T15:20:09;2.40;;;0.50;;
26042;SDS011;13818;52.156;5.382;2023-02-26T15:25:38;3.22;;;0.40;;
26042;SDS011;13818;52.156;5.382;2023-02-26T15:28:11;1.30;;;0.30;;
26042;SDS011;13818;52.156;5.382;2023-02-26T15:30:50;0.93;;;0.20;;
26042;SDS011;13818;52.156;5.382;2023-02-26T15:33:17;2.85;;;0.28;;
26042;SDS011;13818;52.156;5.382;2023-02-26T15:35:46;1.58;;;0.22;;
26042;SDS011;13818;52.156;5.382;2023-02-26T15:38:13;1.33;;;0.77;;
26042;SDS011;13818;52.156;5.382;2023-02-26T15:40:40;1.88;;;0.40;;
26042;SDS011;13818;52.156;5.382;2023-02-26T15:43:08;1.45;;;0.50;;
26042;SDS011;13818;52.156;5.382;2023-02-26T15:45:41;2.83;;;0.25;;
26042;SDS011;13818;52.156;5.382;2023-02-26T15:48:20;1.55;;;0.50;;
26042;SDS011;13818;52.156;5.382;2023-02-26T15:50:51;0.80;;;0.25;;
26042;SDS011;13818;52.156;5.382;2023-02-26T15:53:21;1.70;;;0.30;;
26042;SDS011;13818;52.156;5.382;2023-02-26T15:56:03;1.92;;;0.70;;
26042;SDS011;13818;52.156;5.382;2023-02-26T15:58:35;5.32;;;0.40;;
26042;SDS011;13818;52.156;5.382;2023-02-26T16:01:06;0.65;;;0.30;;